Time;durP1;ratioP1;P1;durP2;ratioP2;P2;SDS_P1;SDS_P2;PMS_P1;PMS_P2;Temp;Humidity;BMP_temperature;BMP_pressure;BME280_temperature;BME280_humidity;BME280_pressure;Samples;Min_cycle;Max_cycle;Signal;HPM_P1;HPM_P2
2022/10/22 00:03:40;;;;;;;26.63;18.03;;;13.20;99.90;;;;;;10092790;29;20256;-82
2022/10/22 00:08:42;;;;;;;21.60;14.97;;;13.50;99.90;;;;;;10093711;29;20316;-82
2022/10/22 00:13:46;;;;;;;18.90;13.90;;;13.50;99.90;;;;;;10093395;29;20240;-82
2022/10/22 00:18:53;;;;;;;30.33;17.63;;;13.60;99.90;;;;;;10067081;29;20242;-83
2022/10/22 00:23:56;;;;;;;23.30;16.37;;;13.60;99.90;;;;;;10037916;29;20743;-82
2022/10/22 00:28:58;;;;;;;28.63;18.27;;;13.60;99.90;;;;;;10047855;29;20394;-82
2022/10/22 00:34:01;;;;;;;22.07;16.93;;;13.70;99.90;;;;;;10075804;29;20240;-82
2022/10/22 00:39:03;;;;;;;17.43;13.03;;;13.50;99.90;;;;;;10092785;29;20240;-82
2022/10/22 00:44:06;;;;;;;19.60;13.73;;;13.20;99.90;;;;;;10075992;29;20269;-82
2022/10/22 00:49:08;;;;;;;20.97;15.83;;;13.70;99.90;;;;;;10030663;29;20257;-82
2022/10/22 00:54:11;;;;;;;17.27;11.77;;;13.50;99.90;;;;;;10021446;29;20238;-82
2022/10/22 00:59:15;;;;;;;17.87;13.43;;;13.50;99.90;;;;;;10064878;29;20747;-82
2022/10/22 01:04:19;;;;;;;14.47;10.70;;;13.60;99.90;;;;;;10074645;29;20709;-82
2022/10/22 01:09:43;;;;;;;23.17;15.53;;;14.30;99.90;;;;;;10053532;29;20317;-82
2022/10/22 01:15:09;;;;;;;18.40;13.47;;;14.00;99.90;;;;;;10049436;29;20368;-82
2022/10/22 01:20:47;;;;;;;20.63;16.20;;;13.90;99.90;;;;;;10061644;29;20240;-82
2022/10/22 01:25:55;;;;;;;13.13;10.57;;;14.20;99.90;;;;;;10042976;29;20269;-82
2022/10/22 01:30:59;;;;;;;18.43;10.37;;;14.40;99.90;;;;;;10036460;29;20273;-82
2022/10/22 01:36:03;;;;;;;18.77;14.10;;;14.40;99.90;;;;;;10068854;29;20589;-82
2022/10/22 01:41:07;;;;;;;22.70;16.30;;;14.50;99.90;;;;;;10068153;29;20269;-82
2022/10/22 01:46:11;;;;;;;18.03;13.17;;;14.20;99.90;;;;;;10054646;29;20264;-82
2022/10/22 01:51:35;;;;;;;17.77;13.17;;;14.30;99.90;;;;;;10090992;29;20296;-82
2022/10/22 01:57:05;;;;;;;8.63;7.27;;;14.40;99.90;;;;;;10090611;29;20261;-82
2022/10/22 02:02:46;;;;;;;12.90;10.33;;;15.00;99.90;;;;;;10072051;29;20298;-82
2022/10/22 02:08:07;;;;;;;22.43;14.60;;;15.30;99.90;;;;;;10091844;29;20805;-82
2022/10/22 02:13:16;;;;;;;18.33;13.80;;;15.00;99.90;;;;;;10080655;29;20232;-82
2022/10/22 02:18:22;;;;;;;13.20;9.13;;;15.30;99.90;;;;;;10084445;29;20240;-82
2022/10/22 02:23:25;;;;;;;10.83;9.10;;;15.50;99.90;;;;;;10096280;29;20599;-82
2022/10/22 02:28:33;;;;;;;12.33;10.53;;;15.50;99.90;;;;;;10097315;29;20252;-82
2022/10/22 02:33:45;;;;;;;18.60;11.43;;;15.60;99.90;;;;;;10095971;29;20683;-82
2022/10/22 02:38:50;;;;;;;20.33;13.17;;;15.60;99.90;;;;;;10096433;29;20266;-82
2022/10/22 02:43:54;;;;;;;11.60;8.97;;;15.60;99.90;;;;;;10080435;29;20232;-83
2022/10/22 02:48:57;;;;;;;13.20;8.87;;;15.40;99.90;;;;;;10096405;29;20720;-82
2022/10/22 02:53:59;;;;;;;13.50;10.50;;;15.70;99.90;;;;;;10067663;29;20290;-81
2022/10/22 02:59:02;;;;;;;9.53;8.13;;;15.80;99.90;;;;;;10090461;29;20262;-82
2022/10/22 03:04:04;;;;;;;17.07;12.20;;;16.10;99.90;;;;;;10096162;29;20293;-82
2022/10/22 03:09:07;;;;;;;10.77;8.27;;;15.90;99.90;;;;;;10095879;29;20253;-82
2022/10/22 03:14:10;;;;;;;11.53;8.97;;;16.00;99.90;;;;;;10093955;29;20237;-82
2022/10/22 03:19:12;;;;;;;14.43;10.40;;;15.90;99.90;;;;;;10064115;29;20308;-82
2022/10/22 03:24:21;;;;;;;17.67;11.10;;;15.90;99.90;;;;;;10078502;29;20289;-82
2022/10/22 03:29:26;;;;;;;12.77;10.67;;;15.70;99.90;;;;;;10077841;29;20738;-82
2022/10/22 03:34:28;;;;;;;9.67;7.60;;;15.90;99.90;;;;;;10093051;29;20316;-82
2022/10/22 03:39:33;;;;;;;9.00;7.37;;;16.00;99.90;;;;;;10078202;29;20237;-83
2022/10/22 03:44:38;;;;;;;13.93;9.93;;;16.30;99.90;;;;;;10094536;29;20237;-82
2022/10/22 03:49:41;;;;;;;14.80;9.80;;;16.30;99.90;;;;;;10094134;29;20309;-82
2022/10/22 03:54:43;;;;;;;8.90;7.53;;;16.30;99.90;;;;;;10093542;29;20225;-82
2022/10/22 03:59:46;;;;;;;15.97;11.50;;;16.30;99.90;;;;;;10068133;29;20313;-82
2022/10/22 04:04:48;;;;;;;13.67;9.47;;;16.10;99.90;;;;;;10091232;29;20287;-82
2022/10/22 04:09:51;;;;;;;13.23;9.77;;;15.80;99.90;;;;;;10076488;29;20301;-82
2022/10/22 04:14:53;;;;;;;20.53;10.83;;;15.40;99.90;;;;;;10073986;29;20228;-82
2022/10/22 04:19:56;;;;;;;20.63;13.93;;;15.10;99.90;;;;;;10091547;29;20249;-82
2022/10/22 04:24:58;;;;;;;15.17;10.17;;;15.20;99.90;;;;;;10091474;29;20233;-82
2022/10/22 04:30:02;;;;;;;28.00;16.43;;;15.70;99.90;;;;;;10092825;29;20265;-82
2022/10/22 04:35:05;;;;;;;28.50;17.33;;;15.40;99.90;;;;;;10089923;29;20331;-82
2022/10/22 04:40:09;;;;;;;10.63;8.30;;;15.40;99.90;;;;;;10067890;29;20260;-82
2022/10/22 04:45:11;;;;;;;17.27;12.97;;;15.70;99.90;;;;;;10073522;29;20237;-81
2022/10/22 04:50:14;;;;;;;13.50;10.53;;;15.50;99.90;;;;;;10088073;29;20305;-82
2022/10/22 04:55:16;;;;;;;14.13;11.50;;;15.90;99.90;;;;;;10091491;29;20221;-81
2022/10/22 05:00:19;;;;;;;13.17;10.50;;;15.70;99.90;;;;;;10090632;29;20245;-82
2022/10/22 05:05:21;;;;;;;10.87;8.30;;;16.00;99.90;;;;;;10088450;29;20273;-82
2022/10/22 05:10:24;;;;;;;14.23;9.37;;;16.00;99.90;;;;;;10074043;29;20262;-82
2022/10/22 05:15:26;;;;;;;12.20;9.03;;;16.00;99.90;;;;;;10090299;29;20233;-82
2022/10/22 05:20:29;;;;;;;12.20;8.83;;;16.10;99.90;;;;;;10091330;29;20236;-82
2022/10/22 05:25:35;;;;;;;19.50;12.03;;;16.00;99.90;;;;;;10091267;29;20289;-82
2022/10/22 05:30:38;;;;;;;19.57;12.30;;;16.20;99.90;;;;;;10074482;29;20260;-82
2022/10/22 05:35:40;;;;;;;12.33;9.90;;;15.90;99.90;;;;;;10089752;29;20735;-82
2022/10/22 05:40:57;;;;;;;11.67;9.17;;;16.00;99.90;;;;;;10098815;29;20232;-82
2022/10/22 05:46:02;;;;;;;12.60;9.27;;;15.80;99.90;;;;;;10082027;29;20236;-82
2022/10/22 05:51:08;;;;;;;13.37;9.57;;;15.90;99.90;;;;;;10096504;29;20436;-82
2022/10/22 05:56:14;;;;;;;14.77;10.63;;;15.80;99.90;;;;;;10097522;29;20225;-82
2022/10/22 06:01:19;;;;;;;13.97;9.67;;;15.90;99.90;;;;;;10097050;29;20232;-81
2022/10/22 06:06:28;;;;;;;20.37;12.50;;;16.10;99.90;;;;;;10077019;29;20261;-81
2022/10/22 06:11:30;;;;;;;15.73;12.03;;;15.80;99.90;;;;;;10054952;29;20229;-82
2022/10/22 06:16:36;;;;;;;15.57;10.33;;;15.50;99.90;;;;;;10078781;29;20262;-81
2022/10/22 06:21:39;;;;;;;11.50;9.00;;;15.90;99.90;;;;;;10095170;29;20265;-81
2022/10/22 06:26:42;;;;;;;22.03;13.63;;;15.90;99.90;;;;;;10079827;29;20603;-82
2022/10/22 06:31:45;;;;;;;17.17;12.43;;;15.90;99.90;;;;;;10095482;29;20269;-82
2022/10/22 06:36:47;;;;;;;17.67;11.87;;;16.10;99.90;;;;;;10080248;29;20324;-82
2022/10/22 06:41:50;;;;;;;17.60;10.13;;;16.10;99.90;;;;;;10096590;29;20245;-82
2022/10/22 06:46:52;;;;;;;21.97;13.47;;;16.00;99.90;;;;;;10081685;29;20319;-81
2022/10/22 06:51:55;;;;;;;16.60;11.37;;;16.00;99.90;;;;;;10076311;29;20213;-81
2022/10/22 06:56:57;;;;;;;22.97;15.70;;;15.80;99.90;;;;;;10096446;29;20245;-82
2022/10/22 07:01:59;;;;;;;19.73;13.00;;;15.90;99.90;;;;;;10087316;29;20690;-82
2022/10/22 07:07:03;;;;;;;29.47;15.87;;;15.80;99.90;;;;;;10094596;29;20333;-82
2022/10/22 07:12:06;;;;;;;27.00;15.73;;;15.50;99.90;;;;;;10064039;29;20306;-82
2022/10/22 07:17:09;;;;;;;25.73;14.17;;;15.50;99.90;;;;;;10089377;29;20245;-82
2022/10/22 07:22:11;;;;;;;35.03;19.67;;;15.40;99.90;;;;;;10095415;29;20249;-82
2022/10/22 07:27:13;;;;;;;36.33;19.67;;;15.70;99.90;;;;;;10079163;29;20257;-82
2022/10/22 07:32:16;;;;;;;26.30;15.07;;;15.80;99.90;;;;;;10094716;29;20265;-83
2022/10/22 07:37:24;;;;;;;31.37;16.60;;;15.40;99.90;;;;;;10062425;29;20253;-83
2022/10/22 07:42:26;;;;;;;27.67;15.83;;;15.60;99.90;;;;;;10077456;29;20266;-84
2022/10/22 07:47:29;;;;;;;38.37;19.70;;;16.00;99.90;;;;;;10076814;29;20273;-83
2022/10/22 07:52:31;;;;;;;43.07;23.57;;;16.00;99.90;;;;;;10076064;29;20641;-82
2022/10/22 07:57:35;;;;;;;18.83;12.83;;;15.70;99.90;;;;;;10093596;29;20317;-82
2022/10/22 08:02:38;;;;;;;18.50;12.37;;;15.50;99.90;;;;;;10074910;29;20253;-83
2022/10/22 08:07:41;;;;;;;31.33;17.90;;;15.80;99.90;;;;;;10075242;29;20293;-82
2022/10/22 08:12:43;;;;;;;24.00;13.97;;;15.80;99.90;;;;;;10090648;29;20638;-83
2022/10/22 08:17:46;;;;;;;43.27;23.73;;;15.60;99.90;;;;;;10074671;29;20280;-82
2022/10/22 08:22:48;;;;;;;26.60;15.10;;;15.30;99.90;;;;;;10077958;29;20213;-82
2022/10/22 08:27:51;;;;;;;15.20;10.53;;;15.80;99.90;;;;;;10064557;29;20628;-82
2022/10/22 08:32:53;;;;;;;16.33;10.07;;;16.00;99.90;;;;;;10091627;29;20274;-82
2022/10/22 08:37:56;;;;;;;23.23;15.37;;;16.00;99.90;;;;;;10090951;29;20242;-81
2022/10/22 08:43:04;;;;;;;31.27;18.50;;;16.20;99.90;;;;;;10072360;29;20232;-82
2022/10/22 08:48:42;;;;;;;17.00;11.27;;;16.10;99.90;;;;;;10091965;29;20316;-82
2022/10/22 08:53:47;;;;;;;11.63;8.93;;;16.20;99.90;;;;;;9979603;29;20250;-82
2022/10/22 08:59:30;;;;;;;38.43;23.30;;;16.30;99.90;;;;;;9965610;29;20314;-83
2022/10/22 09:04:40;;;;;;;44.17;25.50;;;16.00;99.90;;;;;;9894965;30;20778;-81
2022/10/22 09:09:49;;;;;;;19.60;12.50;;;16.20;99.90;;;;;;9898061;30;20297;-81
2022/10/22 09:14:53;;;;;;;16.00;11.50;;;16.30;99.90;;;;;;9879046;30;20695;-82
2022/10/22 09:20:09;;;;;;;57.63;31.50;;;16.40;99.90;;;;;;9870645;30;20686;-83
2022/10/22 09:25:21;;;;;;;21.27;15.13;;;15.60;99.90;;;;;;9888087;29;20286;-81
2022/10/22 09:30:27;;;;;;;38.17;19.43;;;15.80;99.90;;;;;;10001943;29;20310;-82
2022/10/22 09:35:33;;;;;;;45.33;23.57;;;16.10;99.90;;;;;;10003816;29;20268;-82
2022/10/22 09:40:49;;;;;;;49.70;26.63;;;16.00;99.90;;;;;;10069271;29;20252;-82
2022/10/22 09:46:01;;;;;;;23.00;13.97;;;14.90;99.90;;;;;;10082943;29;20264;-84
2022/10/22 09:51:20;;;;;;;25.23;16.97;;;14.10;99.90;;;;;;10055457;29;20678;-83
2022/10/22 09:56:34;;;;;;;31.03;19.03;;;15.60;99.90;;;;;;10092716;23;20271;-82
2022/10/22 10:01:39;;;;;;;34.07;21.90;;;16.00;99.90;;;;;;10069838;29;20249;-82
2022/10/22 10:06:43;;;;;;;37.33;21.13;;;16.00;99.90;;;;;;10086205;29;20663;-82
2022/10/22 10:12:03;;;;;;;31.83;20.97;;;16.00;99.90;;;;;;10086932;29;20637;-82
2022/10/22 10:17:30;;;;;;;37.23;21.80;;;16.00;99.90;;;;;;10087009;29;20233;-83
2022/10/22 10:22:51;;;;;;;39.70;22.10;;;16.20;99.90;;;;;;10070090;29;20257;-82
2022/10/22 10:27:54;;;;;;;30.67;19.97;;;16.20;99.90;;;;;;10092687;29;20308;-82
2022/10/22 10:32:59;;;;;;;31.30;19.53;;;16.20;99.90;;;;;;10091774;29;20687;-82
2022/10/22 10:38:17;;;;;;;28.43;21.23;;;16.20;99.90;;;;;;10093571;29;20328;-83
2022/10/22 10:43:39;;;;;;;29.40;19.00;;;16.40;99.90;;;;;;10092520;29;20636;-82
2022/10/22 10:48:53;;;;;;;26.60;18.63;;;16.50;99.90;;;;;;10040238;29;20259;-82
2022/10/22 10:54:25;;;;;;;30.33;19.00;;;16.70;99.90;;;;;;10075542;29;20268;-83
2022/10/22 10:59:45;;;;;;;27.00;17.10;;;16.70;99.90;;;;;;10092013;29;20661;-83
2022/10/22 11:05:09;;;;;;;26.43;17.23;;;16.70;99.90;;;;;;10088892;29;20232;-83
2022/10/22 11:11:01;;;;;;;27.27;17.90;;;16.60;99.90;;;;;;10073934;29;20256;-82
2022/10/22 11:16:29;;;;;;;22.37;16.37;;;16.60;99.90;;;;;;10073073;29;20244;-82
2022/10/22 11:21:44;;;;;;;23.33;15.70;;;16.60;99.90;;;;;;10092547;29;20240;-83
2022/10/22 11:27:03;;;;;;;23.77;16.67;;;16.50;99.90;;;;;;10074027;29;20778;-83
2022/10/22 11:32:14;;;;;;;22.73;16.13;;;16.60;99.90;;;;;;10092175;29;20250;-82
2022/10/22 11:37:17;;;;;;;28.23;18.67;;;16.60;99.90;;;;;;10090842;29;20314;-83
2022/10/22 11:42:39;;;;;;;29.80;19.23;;;16.60;99.90;;;;;;10090933;29;20234;-83
2022/10/22 11:48:09;;;;;;;24.13;16.50;;;16.70;99.90;;;;;;10090993;29;20733;-83
2022/10/22 11:53:11;;;;;;;31.07;21.17;;;16.80;99.90;;;;;;10086521;29;20240;-81
2022/10/22 11:58:34;;;;;;;32.83;21.77;;;16.50;99.90;;;;;;10094354;29;20619;-81
2022/10/22 12:03:43;;;;;;;33.50;22.23;;;17.00;99.90;;;;;;10079022;29;20219;-81
2022/10/22 12:08:49;;;;;;;32.70;22.43;;;17.50;99.90;;;;;;10094282;29;20227;-82
2022/10/22 12:14:13;;;;;;;33.23;22.40;;;17.70;99.90;;;;;;10077757;29;20267;-81
2022/10/22 12:19:24;;;;;;;35.40;23.93;;;18.10;99.90;;;;;;10082975;29;20683;-82
2022/10/22 12:24:34;;;;;;;32.77;24.33;;;18.10;99.90;;;;;;10072569;29;20601;-82
2022/10/22 12:29:36;;;;;;;35.20;25.90;;;18.10;99.90;;;;;;10087866;29;20254;-82
2022/10/22 12:34:46;;;;;;;31.60;23.43;;;18.20;99.90;;;;;;10086680;29;20236;-82
2022/10/22 12:39:49;;;;;;;38.27;25.93;;;18.20;99.90;;;;;;10090188;29;20649;-81
2022/10/22 12:44:55;;;;;;;35.83;27.17;;;18.40;99.90;;;;;;10074045;29;20723;-82
2022/10/22 12:50:02;;;;;;;35.27;25.80;;;18.20;99.90;;;;;;9746977;29;9999650;-82
2022/10/22 12:55:09;;;;;;;39.03;27.90;;;18.60;99.90;;;;;;10085625;29;20351;-83
2022/10/22 13:00:27;;;;;;;36.80;27.43;;;18.50;99.90;;;;;;10070580;29;20682;-82
2022/10/22 13:05:37;;;;;;;36.13;26.43;;;18.40;99.90;;;;;;10069373;29;20265;-83
2022/10/22 13:10:47;;;;;;;38.70;26.63;;;18.40;99.90;;;;;;10088072;29;20325;-83
2022/10/22 13:15:50;;;;;;;35.47;25.90;;;18.50;99.90;;;;;;10071573;29;20278;-83
2022/10/22 13:21:00;;;;;;;36.40;24.70;;;18.40;99.90;;;;;;10089169;29;20245;-81
2022/10/22 13:26:16;;;;;;;38.57;28.00;;;18.40;99.90;;;;;;10073138;29;20316;-81
2022/10/22 13:31:21;;;;;;;33.30;24.83;;;18.40;99.90;;;;;;10086772;29;20327;-81
2022/10/22 13:36:24;;;;;;;26.17;19.80;;;18.30;99.90;;;;;;10089864;29;20648;-81
2022/10/22 13:41:31;;;;;;;31.87;22.73;;;15.80;99.90;;;;;;10073202;29;20261;-82
2022/10/22 13:46:39;;;;;;;32.40;21.73;;;14.70;99.90;;;;;;10035791;29;20241;-81
2022/10/22 13:51:42;;;;;;;29.70;21.23;;;14.40;99.90;;;;;;10080598;29;20643;-81
2022/10/22 13:56:45;;;;;;;29.77;21.03;;;13.80;99.90;;;;;;10072691;29;20276;-82
2022/10/22 14:01:48;;;;;;;27.50;19.40;;;13.60;99.90;;;;;;10074114;29;20290;-81
2022/10/22 14:06:50;;;;;;;31.40;22.20;;;13.80;99.90;;;;;;10082632;29;20703;-83
2022/10/22 14:11:53;;;;;;;28.73;19.87;;;13.60;99.90;;;;;;10094436;29;20697;-81
2022/10/22 14:16:55;;;;;;;37.33;21.27;;;13.50;99.90;;;;;;10104290;29;20285;-82
2022/10/22 14:21:58;;;;;;;31.67;21.80;;;13.70;99.90;;;;;;10089625;29;20655;-82
2022/10/22 14:27:00;;;;;;;29.47;21.03;;;13.80;99.90;;;;;;10084188;29;20245;-82
2022/10/22 14:32:05;;;;;;;30.03;21.43;;;13.80;99.90;;;;;;10077879;29;20297;-81
2022/10/22 14:37:25;;;;;;;36.90;23.23;;;13.80;99.90;;;;;;10068436;29;20666;-81
2022/10/22 14:42:28;;;;;;;38.37;25.57;;;13.90;99.90;;;;;;10092757;29;20320;-81
2022/10/22 14:47:32;;;;;;;42.23;28.20;;;13.40;99.90;;;;;;10093453;29;20313;-81
2022/10/22 14:52:34;;;;;;;52.30;27.47;;;13.30;99.90;;;;;;10108779;29;20320;-81
2022/10/22 14:57:40;;;;;;;43.67;27.33;;;13.30;99.90;;;;;;10069817;29;20728;-82
2022/10/22 15:02:43;;;;;;;48.53;28.27;;;13.30;99.90;;;;;;10095021;29;20296;-82
2022/10/22 15:07:46;;;;;;;52.73;29.53;;;13.40;99.90;;;;;;10094796;29;20241;-82
2022/10/22 15:12:49;;;;;;;44.17;27.63;;;13.30;99.90;;;;;;10094779;29;21060;-81
2022/10/22 15:17:51;;;;;;;54.37;29.87;;;13.40;99.90;;;;;;10092498;29;20267;-81
2022/10/22 15:22:55;;;;;;;37.57;25.00;;;13.40;99.90;;;;;;10101443;29;20662;-81
2022/10/22 15:27:57;;;;;;;34.80;22.73;;;16.40;99.90;;;;;;10075681;29;20307;-81
2022/10/22 15:33:09;;;;;;;38.37;23.87;;;17.10;99.90;;;;;;10093479;29;20252;-82
2022/10/22 15:38:12;;;;;;;30.50;21.63;;;17.40;99.90;;;;;;10092314;29;20233;-82
2022/10/22 15:43:14;;;;;;;30.60;22.20;;;17.30;99.90;;;;;;10091092;29;20248;-82
2022/10/22 15:48:16;;;;;;;38.23;24.20;;;17.50;99.90;;;;;;10072040;29;20248;-82
2022/10/22 15:53:19;;;;;;;25.13;19.33;;;17.60;99.90;;;;;;10078063;29;20979;-82
2022/10/22 15:58:21;;;;;;;31.93;23.30;;;17.90;99.90;;;;;;10090088;29;20232;-82
2022/10/22 16:03:24;;;;;;;31.67;20.93;;;17.60;99.90;;;;;;10092320;29;20300;-81
2022/10/22 16:08:27;;;;;;;30.60;20.27;;;17.70;99.90;;;;;;10073348;29;20293;-80
2022/10/22 16:13:30;;;;;;;33.90;19.47;;;17.70;99.90;;;;;;10077044;29;20292;-80
2022/10/22 16:18:33;;;;;;;23.53;18.17;;;17.80;99.90;;;;;;10097841;29;20294;-83
2022/10/22 16:23:35;;;;;;;29.03;20.23;;;18.00;99.90;;;;;;10071406;29;20271;-80
2022/10/22 16:28:38;;;;;;;25.90;18.70;;;18.00;99.90;;;;;;10071839;29;20771;-80
2022/10/22 16:33:41;;;;;;;29.87;20.30;;;18.00;99.90;;;;;;10075013;29;20271;-80
2022/10/22 16:38:50;;;;;;;27.07;21.27;;;18.10;99.90;;;;;;10084833;29;20232;-80
2022/10/22 16:43:54;;;;;;;27.37;19.93;;;17.80;99.90;;;;;;10089611;29;20246;-81
2022/10/22 16:48:57;;;;;;;28.93;20.67;;;17.70;99.90;;;;;;10073367;29;20677;-80
2022/10/22 16:53:59;;;;;;;25.70;18.70;;;17.80;99.90;;;;;;10086207;29;20332;-81
2022/10/22 16:59:01;;;;;;;26.00;18.60;;;18.00;99.90;;;;;;10087550;29;20701;-81
2022/10/22 17:04:04;;;;;;;24.90;18.07;;;17.90;99.90;;;;;;10087072;29;20681;-79
2022/10/22 17:09:06;;;;;;;22.77;17.77;;;17.90;99.90;;;;;;10088218;29;20254;-81
2022/10/22 17:14:09;;;;;;;23.97;18.60;;;17.80;99.90;;;;;;10064322;29;20240;-81
2022/10/22 17:19:14;;;;;;;25.73;18.97;;;17.90;99.90;;;;;;10084265;29;20701;-81
2022/10/22 17:24:17;;;;;;;22.60;17.27;;;17.90;99.90;;;;;;10093472;29;20292;-81
2022/10/22 17:29:20;;;;;;;26.03;18.90;;;17.70;99.90;;;;;;10124497;29;20255;-81
2022/10/22 17:34:23;;;;;;;23.37;18.17;;;17.70;99.90;;;;;;10083171;29;20229;-81
2022/10/22 17:39:26;;;;;;;25.37;18.57;;;17.60;99.90;;;;;;10082575;29;20230;-81
2022/10/22 17:44:28;;;;;;;32.83;21.87;;;17.60;99.90;;;;;;10068708;29;20243;-81
2022/10/22 17:49:31;;;;;;;24.93;18.80;;;17.50;99.90;;;;;;10088843;29;20258;-81
2022/10/22 17:54:34;;;;;;;30.27;20.07;;;17.40;99.90;;;;;;10082489;29;20250;-81
2022/10/22 17:59:36;;;;;;;22.03;17.17;;;17.60;99.90;;;;;;10083973;29;20242;-81
2022/10/22 18:04:39;;;;;;;26.57;18.17;;;17.70;99.90;;;;;;10094196;29;20707;-80
2022/10/22 18:09:41;;;;;;;22.83;17.17;;;17.70;99.90;;;;;;10089711;29;20260;-81
2022/10/22 18:14:45;;;;;;;24.73;19.17;;;17.70;99.90;;;;;;10063694;29;20238;-82
2022/10/22 18:19:48;;;;;;;24.73;19.37;;;17.70;99.90;;;;;;10057261;29;20241;-82
2022/10/22 18:24:51;;;;;;;31.50;21.57;;;17.40;99.90;;;;;;10062916;29;20308;-83
2022/10/22 18:29:54;;;;;;;24.93;19.47;;;17.40;99.90;;;;;;10088547;29;20710;-81
2022/10/22 18:34:56;;;;;;;20.27;15.93;;;17.30;99.90;;;;;;10066741;29;20245;-83
2022/10/22 18:39:59;;;;;;;35.90;21.80;;;17.40;99.90;;;;;;10062753;29;20644;-81
2022/10/22 18:45:02;;;;;;;26.93;19.27;;;17.30;99.90;;;;;;9738181;29;10000030;-81
2022/10/22 18:50:04;;;;;;;30.80;19.17;;;17.50;99.90;;;;;;10093577;29;20342;-82
2022/10/22 18:55:07;;;;;;;22.90;17.93;;;17.50;99.90;;;;;;10086799;29;20268;-82
2022/10/22 19:00:10;;;;;;;24.87;17.90;;;17.50;99.90;;;;;;10096005;29;20630;-83
2022/10/22 19:05:13;;;;;;;26.53;17.63;;;17.50;99.90;;;;;;10094840;29;20788;-83
2022/10/22 19:10:16;;;;;;;25.80;19.27;;;17.60;99.90;;;;;;10090921;29;20805;-83
2022/10/22 19:15:19;;;;;;;29.10;20.77;;;17.50;99.90;;;;;;10077772;29;20706;-84
2022/10/22 19:20:21;;;;;;;26.70;19.63;;;17.60;99.90;;;;;;10093490;29;20248;-83
2022/10/22 19:25:23;;;;;;;23.00;17.83;;;17.70;99.90;;;;;;10089703;29;20245;-83
2022/10/22 19:30:26;;;;;;;23.43;17.30;;;17.50;99.90;;;;;;10088966;29;20267;-84
2022/10/22 19:35:29;;;;;;;24.07;16.87;;;17.60;99.90;;;;;;10094697;29;20270;-83
2022/10/22 19:40:31;;;;;;;24.67;18.00;;;17.70;99.90;;;;;;10094858;29;20308;-83
2022/10/22 19:45:38;;;;;;;23.80;17.90;;;17.60;99.90;;;;;;10093556;29;20243;-83
2022/10/22 19:50:40;;;;;;;19.10;15.37;;;17.50;99.90;;;;;;10093785;29;20311;-83
2022/10/22 19:55:43;;;;;;;43.27;24.17;;;17.50;99.90;;;;;;10076943;29;20311;-82
2022/10/22 20:00:46;;;;;;;29.70;19.27;;;14.20;99.90;;;;;;10091544;29;20699;-82
2022/10/22 20:05:51;;;;;;;21.13;16.27;;;16.20;99.90;;;;;;9753098;29;10000248;-83
2022/10/22 20:10:54;;;;;;;22.20;16.53;;;16.50;99.90;;;;;;10090579;29;20304;-82
2022/10/22 20:15:56;;;;;;;21.43;15.77;;;17.00;99.90;;;;;;10071789;29;20664;-82
2022/10/22 20:21:04;;;;;;;20.00;15.63;;;17.30;99.90;;;;;;10048088;29;20248;-82
2022/10/22 20:26:07;;;;;;;25.80;16.53;;;17.50;99.90;;;;;;10087999;29;20237;-82
2022/10/22 20:31:15;;;;;;;23.03;15.90;;;17.60;99.90;;;;;;10087407;29;20272;-82
2022/10/22 20:36:21;;;;;;;21.03;16.33;;;17.50;99.90;;;;;;10070346;29;20241;-82
2022/10/22 20:41:24;;;;;;;22.60;17.50;;;17.50;99.90;;;;;;10072832;29;20254;-82
2022/10/22 20:46:29;;;;;;;23.67;15.73;;;17.40;99.90;;;;;;10087511;29;20244;-82
2022/10/22 20:51:33;;;;;;;19.33;15.10;;;17.50;99.90;;;;;;10087938;29;20325;-82
2022/10/22 20:56:38;;;;;;;20.13;14.97;;;17.50;99.90;;;;;;10089840;29;20716;-82
2022/10/22 21:01:45;;;;;;;22.57;16.17;;;17.40;99.90;;;;;;10089368;29;20236;-83
2022/10/22 21:06:49;;;;;;;22.57;16.07;;;17.20;99.90;;;;;;10084123;29;20291;-82
2022/10/22 21:11:55;;;;;;;20.53;14.97;;;17.00;99.90;;;;;;10071312;29;20256;-86
2022/10/22 21:16:58;;;;;;;20.33;15.27;;;16.80;99.90;;;;;;10071474;29;20771;-83
2022/10/22 21:22:01;;;;;;;23.43;17.63;;;16.70;99.90;;;;;;10081044;29;20714;-83
2022/10/22 21:27:05;;;;;;;27.40;16.10;;;16.50;99.90;;;;;;10084231;29;20235;-83
2022/10/22 21:32:08;;;;;;;23.50;16.50;;;16.40;99.90;;;;;;10076044;29;20256;-82
2022/10/22 21:37:11;;;;;;;25.67;19.13;;;16.60;99.90;;;;;;10071366;29;20666;-83
2022/10/22 21:42:16;;;;;;;21.30;16.40;;;16.60;99.90;;;;;;10071226;29;20267;-83
2022/10/22 21:47:18;;;;;;;33.57;21.90;;;17.00;99.90;;;;;;10054576;29;20241;-82
2022/10/22 21:52:21;;;;;;;30.77;20.37;;;16.80;99.90;;;;;;10060422;29;20268;-83
2022/10/22 21:57:23;;;;;;;27.60;19.67;;;16.70;99.90;;;;;;10088472;29;20289;-83
2022/10/22 22:02:27;;;;;;;24.73;16.63;;;16.80;99.90;;;;;;10065671;29;20267;-83
2022/10/22 22:07:30;;;;;;;23.13;17.30;;;16.90;99.90;;;;;;10068603;29;20313;-84
2022/10/22 22:12:32;;;;;;;20.20;15.03;;;16.90;99.90;;;;;;10071568;29;20261;-83
2022/10/22 22:17:35;;;;;;;21.40;17.20;;;17.00;99.90;;;;;;10061542;29;20238;-83
2022/10/22 22:22:38;;;;;;;23.87;18.10;;;16.80;99.90;;;;;;10075191;29;20305;-82
2022/10/22 22:27:41;;;;;;;23.40;17.03;;;16.60;99.90;;;;;;10056908;29;20241;-83
2022/10/22 22:32:44;;;;;;;19.67;14.73;;;16.70;99.90;;;;;;10062225;29;20261;-83
2022/10/22 22:37:47;;;;;;;24.60;18.43;;;16.50;99.90;;;;;;10097471;29;20240;-82
2022/10/22 22:42:49;;;;;;;27.97;17.73;;;16.80;99.90;;;;;;10079462;29;20210;-83
2022/10/22 22:47:52;;;;;;;20.53;14.63;;;17.00;99.90;;;;;;10079828;29;20205;-82
2022/10/22 22:52:54;;;;;;;26.60;16.80;;;17.10;99.90;;;;;;10079707;29;20291;-82
2022/10/22 22:57:57;;;;;;;24.80;16.50;;;17.10;99.90;;;;;;10072853;29;20239;-82
2022/10/22 23:02:59;;;;;;;24.77;16.73;;;17.30;99.90;;;;;;10083023;29;20240;-82
2022/10/22 23:08:02;;;;;;;22.40;15.03;;;17.00;99.90;;;;;;10078874;29;20270;-82
2022/10/22 23:13:04;;;;;;;23.30;15.57;;;17.20;99.90;;;;;;10095774;29;20282;-82
2022/10/22 23:18:07;;;;;;;21.20;15.80;;;17.30;99.90;;;;;;10062473;29;20753;-83
2022/10/22 23:23:09;;;;;;;21.80;15.37;;;17.30;99.90;;;;;;10095005;29;20242;-82
2022/10/22 23:28:11;;;;;;;23.60;14.60;;;17.30;99.90;;;;;;10094757;29;20296;-82
2022/10/22 23:33:15;;;;;;;19.17;14.47;;;17.20;99.90;;;;;;10093770;29;20268;-82
2022/10/22 23:38:17;;;;;;;17.53;13.57;;;17.20;99.90;;;;;;10094805;29;20708;-82
2022/10/22 23:43:20;;;;;;;21.27;15.40;;;17.20;99.90;;;;;;10076577;29;20285;-82
2022/10/22 23:48:22;;;;;;;25.47;16.97;;;17.20;99.90;;;;;;10076615;29;20263;-82
2022/10/22 23:53:25;;;;;;;18.10;13.30;;;17.10;99.90;;;;;;10077125;29;20268;-82
2022/10/22 23:58:27;;;;;;;16.57;13.67;;;17.30;99.90;;;;;;10077443;29;20283;-82
